sensor_id;sensor_type;location;lat;lon;timestamp;P1;durP1;ratioP1;P2;durP2;ratioP2
27209;SDS011;14721;42.668;23.386;2023-03-11T00:02:24;14.80;;;7.83;;
27209;SDS011;14721;42.668;23.386;2023-03-11T00:04:50;14.27;;;7.60;;
27209;SDS011;14721;42.668;23.386;2023-03-11T00:07:15;14.77;;;7.33;;
27209;SDS011;14721;42.668;23.386;2023-03-11T00:09:41;14.60;;;7.77;;
27209;SDS011;14721;42.668;23.386;2023-03-11T00:12:06;12.30;;;6.43;;
27209;SDS011;14721;42.668;23.386;2023-03-11T00:14:32;6.90;;;3.73;;
27209;SDS011;14721;42.668;23.386;2023-03-11T00:16:58;6.30;;;2.87;;
27209;SDS011;14721;42.668;23.386;2023-03-11T00:19:24;6.40;;;2.03;;
27209;SDS011;14721;42.668;23.386;2023-03-11T00:21:49;3.27;;;1.67;;
27209;SDS011;14721;42.668;23.386;2023-03-11T00:24:15;4.17;;;1.70;;
27209;SDS011;14721;42.668;23.386;2023-03-11T00:26:41;2.73;;;1.37;;
27209;SDS011;14721;42.668;23.386;2023-03-11T00:29:06;1.83;;;0.90;;
27209;SDS011;14721;42.668;23.386;2023-03-11T00:31:33;3.83;;;0.90;;
27209;SDS011;14721;42.668;23.386;2023-03-11T00:33:58;2.00;;;0.90;;
27209;SDS011;14721;42.668;23.386;2023-03-11T00:36:28;1.83;;;0.97;;
27209;SDS011;14721;42.668;23.386;2023-03-11T00:38:56;2.03;;;0.70;;
27209;SDS011;14721;42.668;23.386;2023-03-11T00:41:22;1.27;;;0.63;;
27209;SDS011;14721;42.668;23.386;2023-03-11T00:43:49;1.40;;;0.70;;
27209;SDS011;14721;42.668;23.386;2023-03-11T00:46:14;1.00;;;0.60;;
27209;SDS011;14721;42.668;23.386;2023-03-11T00:48:40;1.27;;;0.60;;
27209;SDS011;14721;42.668;23.386;2023-03-11T00:51:06;3.57;;;0.67;;
27209;SDS011;14721;42.668;23.386;2023-03-11T00:53:35;3.30;;;0.67;;
27209;SDS011;14721;42.668;23.386;2023-03-11T00:56:11;1.27;;;0.50;;
27209;SDS011;14721;42.668;23.386;2023-03-11T00:58:38;1.33;;;0.70;;
27209;SDS011;14721;42.668;23.386;2023-03-11T01:01:08;2.23;;;0.40;;
27209;SDS011;14721;42.668;23.386;2023-03-11T01:03:35;1.57;;;0.70;;
27209;SDS011;14721;42.668;23.386;2023-03-11T01:06:01;1.57;;;0.80;;
27209;SDS011;14721;42.668;23.386;2023-03-11T01:08:27;2.63;;;0.60;;
27209;SDS011;14721;42.668;23.386;2023-03-11T01:10:54;1.97;;;0.60;;
27209;SDS011;14721;42.668;23.386;2023-03-11T01:13:20;0.67;;;0.40;;
27209;SDS011;14721;42.668;23.386;2023-03-11T01:15:45;0.60;;;0.50;;
27209;SDS011;14721;42.668;23.386;2023-03-11T01:18:11;1.73;;;0.40;;
27209;SDS011;14721;42.668;23.386;2023-03-11T01:20:38;1.77;;;0.73;;
27209;SDS011;14721;42.668;23.386;2023-03-11T01:23:05;3.70;;;0.97;;
27209;SDS011;14721;42.668;23.386;2023-03-11T01:25:31;2.03;;;0.40;;
27209;SDS011;14721;42.668;23.386;2023-03-11T01:27:57;3.47;;;0.87;;
27209;SDS011;14721;42.668;23.386;2023-03-11T01:30:23;1.87;;;0.83;;
27209;SDS011;14721;42.668;23.386;2023-03-11T01:32:50;1.83;;;0.80;;
27209;SDS011;14721;42.668;23.386;2023-03-11T01:35:18;4.63;;;1.60;;
27209;SDS011;14721;42.668;23.386;2023-03-11T01:37:44;2.17;;;0.97;;
27209;SDS011;14721;42.668;23.386;2023-03-11T01:40:16;1.43;;;0.97;;
27209;SDS011;14721;42.668;23.386;2023-03-11T01:42:46;3.77;;;1.37;;
27209;SDS011;14721;42.668;23.386;2023-03-11T01:47:52;4.83;;;0.90;;
27209;SDS011;14721;42.668;23.386;2023-03-11T01:50:18;2.10;;;1.20;;
27209;SDS011;14721;42.668;23.386;2023-03-11T01:52:44;2.73;;;1.10;;
27209;SDS011;14721;42.668;23.386;2023-03-11T01:55:11;1.60;;;1.07;;
27209;SDS011;14721;42.668;23.386;2023-03-11T01:57:39;4.80;;;1.00;;
27209;SDS011;14721;42.668;23.386;2023-03-11T02:00:08;2.17;;;1.20;;
27209;SDS011;14721;42.668;23.386;2023-03-11T02:02:42;1.27;;;0.90;;
27209;SDS011;14721;42.668;23.386;2023-03-11T02:05:17;2.53;;;1.60;;
27209;SDS011;14721;42.668;23.386;2023-03-11T02:07:45;4.80;;;1.50;;
27209;SDS011;14721;42.668;23.386;2023-03-11T02:10:21;4.10;;;1.83;;
27209;SDS011;14721;42.668;23.386;2023-03-11T02:13:26;6.13;;;2.00;;
27209;SDS011;14721;42.668;23.386;2023-03-11T02:15:58;6.33;;;2.43;;
27209;SDS011;14721;42.668;23.386;2023-03-11T02:18:25;3.63;;;2.20;;
27209;SDS011;14721;42.668;23.386;2023-03-11T02:21:08;3.67;;;2.30;;
27209;SDS011;14721;42.668;23.386;2023-03-11T02:23:50;6.10;;;2.97;;
27209;SDS011;14721;42.668;23.386;2023-03-11T02:29:24;5.83;;;3.03;;
27209;SDS011;14721;42.668;23.386;2023-03-11T02:31:52;4.60;;;2.30;;
27209;SDS011;14721;42.668;23.386;2023-03-11T02:34:22;4.93;;;2.67;;
27209;SDS011;14721;42.668;23.386;2023-03-11T02:36:50;5.40;;;3.27;;
27209;SDS011;14721;42.668;23.386;2023-03-11T02:39:16;4.83;;;2.57;;
27209;SDS011;14721;42.668;23.386;2023-03-11T02:41:44;8.07;;;3.33;;
27209;SDS011;14721;42.668;23.386;2023-03-11T02:44:12;5.50;;;2.60;;
27209;SDS011;14721;42.668;23.386;2023-03-11T02:46:40;7.97;;;3.30;;
27209;SDS011;14721;42.668;23.386;2023-03-11T02:49:07;7.00;;;3.53;;
27209;SDS011;14721;42.668;23.386;2023-03-11T02:51:34;6.40;;;3.77;;
27209;SDS011;14721;42.668;23.386;2023-03-11T02:54:02;9.03;;;4.40;;
27209;SDS011;14721;42.668;23.386;2023-03-11T02:56:31;9.47;;;3.97;;
27209;SDS011;14721;42.668;23.386;2023-03-11T02:58:57;10.50;;;4.63;;
27209;SDS011;14721;42.668;23.386;2023-03-11T03:01:23;9.03;;;3.50;;
27209;SDS011;14721;42.668;23.386;2023-03-11T03:03:48;10.90;;;3.50;;
27209;SDS011;14721;42.668;23.386;2023-03-11T03:06:14;8.00;;;2.90;;
27209;SDS011;14721;42.668;23.386;2023-03-11T03:08:40;4.73;;;2.83;;
27209;SDS011;14721;42.668;23.386;2023-03-11T03:11:06;6.10;;;2.30;;
27209;SDS011;14721;42.668;23.386;2023-03-11T03:13:31;5.07;;;2.43;;
27209;SDS011;14721;42.668;23.386;2023-03-11T03:15:57;4.47;;;2.93;;
27209;SDS011;14721;42.668;23.386;2023-03-11T03:18:23;4.30;;;3.13;;
27209;SDS011;14721;42.668;23.386;2023-03-11T03:20:49;6.97;;;3.40;;
27209;SDS011;14721;42.668;23.386;2023-03-11T03:23:16;8.83;;;4.07;;
27209;SDS011;14721;42.668;23.386;2023-03-11T03:25:42;5.93;;;3.20;;
27209;SDS011;14721;42.668;23.386;2023-03-11T03:28:11;10.60;;;3.70;;
27209;SDS011;14721;42.668;23.386;2023-03-11T03:30:39;6.43;;;3.20;;
27209;SDS011;14721;42.668;23.386;2023-03-11T03:33:05;7.80;;;3.60;;
27209;SDS011;14721;42.668;23.386;2023-03-11T03:35:32;6.10;;;3.07;;
27209;SDS011;14721;42.668;23.386;2023-03-11T03:37:58;7.27;;;3.50;;
27209;SDS011;14721;42.668;23.386;2023-03-11T03:40:24;4.60;;;3.07;;
27209;SDS011;14721;42.668;23.386;2023-03-11T03:42:50;6.93;;;3.10;;
27209;SDS011;14721;42.668;23.386;2023-03-11T03:45:16;6.53;;;2.70;;
27209;SDS011;14721;42.668;23.386;2023-03-11T03:47:42;4.90;;;2.70;;
27209;SDS011;14721;42.668;23.386;2023-03-11T03:50:08;6.17;;;2.90;;
27209;SDS011;14721;42.668;23.386;2023-03-11T03:52:36;8.30;;;4.10;;
27209;SDS011;14721;42.668;23.386;2023-03-11T03:55:03;6.63;;;3.67;;
27209;SDS011;14721;42.668;23.386;2023-03-11T03:57:30;10.73;;;4.80;;
27209;SDS011;14721;42.668;23.386;2023-03-11T03:59:56;8.50;;;4.67;;
27209;SDS011;14721;42.668;23.386;2023-03-11T04:02:23;8.70;;;4.60;;
27209;SDS011;14721;42.668;23.386;2023-03-11T04:04:49;9.67;;;4.33;;
27209;SDS011;14721;42.668;23.386;2023-03-11T04:07:14;7.73;;;4.23;;
27209;SDS011;14721;42.668;23.386;2023-03-11T04:09:42;6.77;;;4.13;;
27209;SDS011;14721;42.668;23.386;2023-03-11T04:12:14;8.73;;;4.40;;
27209;SDS011;14721;42.668;23.386;2023-03-11T04:14:44;8.77;;;4.00;;
27209;SDS011;14721;42.668;23.386;2023-03-11T04:17:10;8.33;;;3.83;;
27209;SDS011;14721;42.668;23.386;2023-03-11T04:19:37;11.13;;;6.43;;
27209;SDS011;14721;42.668;23.386;2023-03-11T04:22:03;10.00;;;3.93;;
27209;SDS011;14721;42.668;23.386;2023-03-11T04:24:29;6.07;;;3.40;;
27209;SDS011;14721;42.668;23.386;2023-03-11T04:26:54;5.93;;;3.63;;
27209;SDS011;14721;42.668;23.386;2023-03-11T04:29:21;7.60;;;3.90;;
27209;SDS011;14721;42.668;23.386;2023-03-11T04:31:46;8.30;;;3.63;;
27209;SDS011;14721;42.668;23.386;2023-03-11T04:34:12;8.80;;;3.70;;
27209;SDS011;14721;42.668;23.386;2023-03-11T04:36:37;7.83;;;4.07;;
27209;SDS011;14721;42.668;23.386;2023-03-11T04:39:03;6.03;;;3.40;;
27209;SDS011;14721;42.668;23.386;2023-03-11T04:41:28;8.97;;;4.40;;
27209;SDS011;14721;42.668;23.386;2023-03-11T04:43:54;6.87;;;4.00;;
27209;SDS011;14721;42.668;23.386;2023-03-11T04:46:23;7.47;;;3.83;;
27209;SDS011;14721;42.668;23.386;2023-03-11T04:48:49;5.90;;;4.03;;
27209;SDS011;14721;42.668;23.386;2023-03-11T04:51:14;6.47;;;3.57;;
27209;SDS011;14721;42.668;23.386;2023-03-11T04:53:40;7.30;;;4.03;;
27209;SDS011;14721;42.668;23.386;2023-03-11T04:56:06;5.33;;;3.00;;
27209;SDS011;14721;42.668;23.386;2023-03-11T04:58:31;4.73;;;2.90;;
27209;SDS011;14721;42.668;23.386;2023-03-11T05:01:00;7.80;;;3.50;;
27209;SDS011;14721;42.668;23.386;2023-03-11T05:03:26;5.87;;;3.37;;
27209;SDS011;14721;42.668;23.386;2023-03-11T05:05:51;8.23;;;2.97;;
27209;SDS011;14721;42.668;23.386;2023-03-11T05:08:21;6.00;;;3.10;;
27209;SDS011;14721;42.668;23.386;2023-03-11T05:10:49;4.83;;;2.90;;
27209;SDS011;14721;42.668;23.386;2023-03-11T05:13:16;3.93;;;2.10;;
27209;SDS011;14721;42.668;23.386;2023-03-11T05:15:44;4.67;;;2.30;;
27209;SDS011;14721;42.668;23.386;2023-03-11T05:18:13;4.80;;;2.40;;
27209;SDS011;14721;42.668;23.386;2023-03-11T05:20:39;8.03;;;2.60;;
27209;SDS011;14721;42.668;23.386;2023-03-11T05:23:05;6.07;;;3.17;;
27209;SDS011;14721;42.668;23.386;2023-03-11T05:25:31;6.17;;;2.93;;
27209;SDS011;14721;42.668;23.386;2023-03-11T05:27:56;3.43;;;2.00;;
27209;SDS011;14721;42.668;23.386;2023-03-11T05:30:22;6.97;;;2.70;;
27209;SDS011;14721;42.668;23.386;2023-03-11T05:32:49;6.73;;;2.27;;
27209;SDS011;14721;42.668;23.386;2023-03-11T05:35:14;4.17;;;2.23;;
27209;SDS011;14721;42.668;23.386;2023-03-11T05:37:40;4.73;;;1.73;;
27209;SDS011;14721;42.668;23.386;2023-03-11T05:40:06;5.13;;;1.30;;
27209;SDS011;14721;42.668;23.386;2023-03-11T05:42:36;1.73;;;1.20;;
27209;SDS011;14721;42.668;23.386;2023-03-11T05:45:04;1.73;;;0.70;;
27209;SDS011;14721;42.668;23.386;2023-03-11T05:47:30;1.07;;;0.63;;
27209;SDS011;14721;42.668;23.386;2023-03-11T05:49:55;1.90;;;0.60;;
27209;SDS011;14721;42.668;23.386;2023-03-11T05:52:21;0.67;;;0.40;;
27209;SDS011;14721;42.668;23.386;2023-03-11T05:54:50;1.23;;;0.60;;
27209;SDS011;14721;42.668;23.386;2023-03-11T05:57:17;0.83;;;0.40;;
27209;SDS011;14721;42.668;23.386;2023-03-11T05:59:43;0.97;;;0.30;;
27209;SDS011;14721;42.668;23.386;2023-03-11T06:02:09;1.97;;;0.63;;
27209;SDS011;14721;42.668;23.386;2023-03-11T06:04:35;1.07;;;0.73;;
27209;SDS011;14721;42.668;23.386;2023-03-11T06:07:01;2.23;;;0.60;;
27209;SDS011;14721;42.668;23.386;2023-03-11T06:09:27;1.77;;;0.83;;
27209;SDS011;14721;42.668;23.386;2023-03-11T06:11:53;0.47;;;0.30;;
27209;SDS011;14721;42.668;23.386;2023-03-11T06:14:19;1.30;;;0.43;;
27209;SDS011;14721;42.668;23.386;2023-03-11T06:16:44;0.70;;;0.30;;
27209;SDS011;14721;42.668;23.386;2023-03-11T06:19:10;0.80;;;0.40;;
27209;SDS011;14721;42.668;23.386;2023-03-11T06:21:35;1.07;;;0.43;;
27209;SDS011;14721;42.668;23.386;2023-03-11T06:24:01;0.20;;;0.20;;
27209;SDS011;14721;42.668;23.386;2023-03-11T06:26:26;1.23;;;0.40;;
27209;SDS011;14721;42.668;23.386;2023-03-11T06:28:54;1.17;;;0.40;;
27209;SDS011;14721;42.668;23.386;2023-03-11T06:31:21;0.97;;;0.40;;
27209;SDS011;14721;42.668;23.386;2023-03-11T06:33:51;0.60;;;0.50;;
27209;SDS011;14721;42.668;23.386;2023-03-11T06:36:20;0.63;;;0.30;;
27209;SDS011;14721;42.668;23.386;2023-03-11T06:38:46;0.23;;;0.23;;
27209;SDS011;14721;42.668;23.386;2023-03-11T06:41:16;0.60;;;0.57;;
27209;SDS011;14721;42.668;23.386;2023-03-11T06:43:41;1.03;;;0.50;;
27209;SDS011;14721;42.668;23.386;2023-03-11T06:46:11;1.13;;;0.43;;
27209;SDS011;14721;42.668;23.386;2023-03-11T06:48:40;0.93;;;0.50;;
27209;SDS011;14721;42.668;23.386;2023-03-11T06:51:06;1.47;;;0.50;;
27209;SDS011;14721;42.668;23.386;2023-03-11T06:53:32;1.43;;;0.53;;
27209;SDS011;14721;42.668;23.386;2023-03-11T06:56:02;0.73;;;0.27;;
27209;SDS011;14721;42.668;23.386;2023-03-11T06:58:30;0.63;;;0.30;;
27209;SDS011;14721;42.668;23.386;2023-03-11T07:01:01;2.03;;;0.40;;
27209;SDS011;14721;42.668;23.386;2023-03-11T07:03:28;1.87;;;0.67;;
27209;SDS011;14721;42.668;23.386;2023-03-11T07:05:54;0.93;;;0.43;;
27209;SDS011;14721;42.668;23.386;2023-03-11T07:08:19;0.90;;;0.30;;
27209;SDS011;14721;42.668;23.386;2023-03-11T07:10:45;0.40;;;0.20;;
27209;SDS011;14721;42.668;23.386;2023-03-11T07:13:12;0.70;;;0.50;;
27209;SDS011;14721;42.668;23.386;2023-03-11T07:15:37;0.77;;;0.30;;
27209;SDS011;14721;42.668;23.386;2023-03-11T07:18:03;0.60;;;0.30;;
27209;SDS011;14721;42.668;23.386;2023-03-11T07:20:28;0.60;;;0.50;;
27209;SDS011;14721;42.668;23.386;2023-03-11T07:22:54;1.60;;;1.00;;
27209;SDS011;14721;42.668;23.386;2023-03-11T07:25:19;3.23;;;1.17;;
27209;SDS011;14721;42.668;23.386;2023-03-11T07:27:45;1.17;;;0.80;;
27209;SDS011;14721;42.668;23.386;2023-03-11T07:30:13;0.30;;;0.30;;
27209;SDS011;14721;42.668;23.386;2023-03-11T07:32:40;1.70;;;0.50;;
27209;SDS011;14721;42.668;23.386;2023-03-11T07:35:06;0.93;;;0.40;;
27209;SDS011;14721;42.668;23.386;2023-03-11T07:37:31;1.03;;;0.50;;
27209;SDS011;14721;42.668;23.386;2023-03-11T07:39:57;1.47;;;0.47;;
27209;SDS011;14721;42.668;23.386;2023-03-11T07:42:22;0.90;;;0.50;;
27209;SDS011;14721;42.668;23.386;2023-03-11T07:44:50;0.57;;;0.40;;
27209;SDS011;14721;42.668;23.386;2023-03-11T07:47:16;0.63;;;0.40;;
27209;SDS011;14721;42.668;23.386;2023-03-11T07:49:41;2.77;;;0.70;;
27209;SDS011;14721;42.668;23.386;2023-03-11T07:52:07;2.73;;;0.67;;
27209;SDS011;14721;42.668;23.386;2023-03-11T07:54:32;1.30;;;0.60;;
27209;SDS011;14721;42.668;23.386;2023-03-11T07:56:58;1.50;;;0.60;;
27209;SDS011;14721;42.668;23.386;2023-03-11T07:59:24;3.67;;;0.83;;
27209;SDS011;14721;42.668;23.386;2023-03-11T08:01:50;1.50;;;0.77;;
27209;SDS011;14721;42.668;23.386;2023-03-11T08:04:15;0.40;;;0.32;;
27209;SDS011;14721;42.668;23.386;2023-03-11T08:06:42;2.53;;;0.80;;
27209;SDS011;14721;42.668;23.386;2023-03-11T08:09:10;1.23;;;0.50;;
27209;SDS011;14721;42.668;23.386;2023-03-11T08:11:36;3.42;;;0.70;;
27209;SDS011;14721;42.668;23.386;2023-03-11T08:14:02;1.08;;;0.57;;
27209;SDS011;14721;42.668;23.386;2023-03-11T08:16:27;2.58;;;0.68;;
27209;SDS011;14721;42.668;23.386;2023-03-11T08:18:53;1.00;;;0.52;;
27209;SDS011;14721;42.668;23.386;2023-03-11T08:21:23;3.13;;;0.60;;
27209;SDS011;14721;42.668;23.386;2023-03-11T08:23:51;1.38;;;0.30;;
27209;SDS011;14721;42.668;23.386;2023-03-11T08:26:20;1.45;;;0.60;;
27209;SDS011;14721;42.668;23.386;2023-03-11T08:28:46;1.60;;;1.05;;
27209;SDS011;14721;42.668;23.386;2023-03-11T08:31:13;4.82;;;0.93;;
27209;SDS011;14721;42.668;23.386;2023-03-11T08:33:50;5.32;;;0.80;;
27209;SDS011;14721;42.668;23.386;2023-03-11T08:36:18;1.17;;;0.80;;
27209;SDS011;14721;42.668;23.386;2023-03-11T08:38:45;1.52;;;0.70;;
27209;SDS011;14721;42.668;23.386;2023-03-11T08:41:10;2.92;;;0.90;;
27209;SDS011;14721;42.668;23.386;2023-03-11T08:43:36;1.75;;;1.00;;
27209;SDS011;14721;42.668;23.386;2023-03-11T08:46:03;0.73;;;0.50;;
27209;SDS011;14721;42.668;23.386;2023-03-11T08:48:33;10.13;;;3.88;;
27209;SDS011;14721;42.668;23.386;2023-03-11T08:51:00;1.65;;;1.00;;
27209;SDS011;14721;42.668;23.386;2023-03-11T08:53:27;5.07;;;2.55;;
27209;SDS011;14721;42.668;23.386;2023-03-11T08:55:53;1.77;;;0.80;;
27209;SDS011;14721;42.668;23.386;2023-03-11T08:58:19;3.10;;;1.52;;
27209;SDS011;14721;42.668;23.386;2023-03-11T09:00:44;4.38;;;1.17;;
27209;SDS011;14721;42.668;23.386;2023-03-11T09:03:10;1.92;;;1.15;;
27209;SDS011;14721;42.668;23.386;2023-03-11T09:05:38;2.17;;;0.93;;
27209;SDS011;14721;42.668;23.386;2023-03-11T09:08:04;1.52;;;0.68;;
27209;SDS011;14721;42.668;23.386;2023-03-11T09:10:36;4.20;;;0.95;;
27209;SDS011;14721;42.668;23.386;2023-03-11T09:13:02;1.27;;;0.68;;
27209;SDS011;14721;42.668;23.386;2023-03-11T09:15:27;4.93;;;0.73;;
27209;SDS011;14721;42.668;23.386;2023-03-11T09:17:52;1.25;;;0.40;;
27209;SDS011;14721;42.668;23.386;2023-03-11T09:20:24;1.70;;;0.57;;
27209;SDS011;14721;42.668;23.386;2023-03-11T09:22:50;0.43;;;0.40;;
27209;SDS011;14721;42.668;23.386;2023-03-11T09:25:16;2.08;;;0.77;;
27209;SDS011;14721;42.668;23.386;2023-03-11T09:27:41;0.60;;;0.40;;
27209;SDS011;14721;42.668;23.386;2023-03-11T09:30:07;0.37;;;0.30;;
27209;SDS011;14721;42.668;23.386;2023-03-11T09:32:34;3.03;;;1.13;;
27209;SDS011;14721;42.668;23.386;2023-03-11T09:35:00;2.20;;;0.60;;
27209;SDS011;14721;42.668;23.386;2023-03-11T09:37:25;0.65;;;0.47;;
27209;SDS011;14721;42.668;23.386;2023-03-11T09:39:51;2.38;;;0.70;;
27209;SDS011;14721;42.668;23.386;2023-03-11T09:58:01;3.28;;;0.77;;
27209;SDS011;14721;42.668;23.386;2023-03-11T10:00:33;2.15;;;0.65;;
27209;SDS011;14721;42.668;23.386;2023-03-11T10:02:59;3.70;;;1.33;;
27209;SDS011;14721;42.668;23.386;2023-03-11T10:05:27;3.22;;;0.70;;
27209;SDS011;14721;42.668;23.386;2023-03-11T10:10:27;2.17;;;0.80;;
27209;SDS011;14721;42.668;23.386;2023-03-11T10:13:02;2.72;;;0.75;;
27209;SDS011;14721;42.668;23.386;2023-03-11T10:15:54;2.38;;;0.60;;
27209;SDS011;14721;42.668;23.386;2023-03-11T10:26:54;0.50;;;0.50;;
27209;SDS011;14721;42.668;23.386;2023-03-11T10:29:31;3.28;;;1.00;;
27209;SDS011;14721;42.668;23.386;2023-03-11T10:32:16;1.80;;;0.82;;
27209;SDS011;14721;42.668;23.386;2023-03-11T10:37:57;2.08;;;0.77;;
27209;SDS011;14721;42.668;23.386;2023-03-11T10:40:34;1.40;;;0.73;;
27209;SDS011;14721;42.668;23.386;2023-03-11T10:43:03;2.55;;;0.82;;
27209;SDS011;14721;42.668;23.386;2023-03-11T10:45:38;0.90;;;0.40;;
27209;SDS011;14721;42.668;23.386;2023-03-11T10:48:11;4.47;;;1.00;;
27209;SDS011;14721;42.668;23.386;2023-03-11T10:50:45;1.80;;;0.50;;
27209;SDS011;14721;42.668;23.386;2023-03-11T10:53:17;4.05;;;0.88;;
27209;SDS011;14721;42.668;23.386;2023-03-11T10:55:48;3.55;;;0.73;;
27209;SDS011;14721;42.668;23.386;2023-03-11T10:58:16;1.25;;;0.60;;
27209;SDS011;14721;42.668;23.386;2023-03-11T11:00:45;2.45;;;1.15;;
27209;SDS011;14721;42.668;23.386;2023-03-11T11:03:20;2.00;;;0.70;;
27209;SDS011;14721;42.668;23.386;2023-03-11T11:06:05;4.60;;;0.83;;
27209;SDS011;14721;42.668;23.386;2023-03-11T11:08:41;4.20;;;1.20;;
27209;SDS011;14721;42.668;23.386;2023-03-11T11:11:09;1.60;;;0.87;;
27209;SDS011;14721;42.668;23.386;2023-03-11T11:13:54;1.57;;;1.00;;
27209;SDS011;14721;42.668;23.386;2023-03-11T11:16:23;1.30;;;0.90;;
27209;SDS011;14721;42.668;23.386;2023-03-11T11:19:01;2.35;;;0.93;;
27209;SDS011;14721;42.668;23.386;2023-03-11T11:29:43;1.60;;;0.60;;
27209;SDS011;14721;42.668;23.386;2023-03-11T11:37:25;1.60;;;0.90;;
27209;SDS011;14721;42.668;23.386;2023-03-11T11:39:59;2.28;;;1.35;;
27209;SDS011;14721;42.668;23.386;2023-03-11T11:42:34;3.40;;;1.05;;
27209;SDS011;14721;42.668;23.386;2023-03-11T11:50:44;2.53;;;0.60;;
27209;SDS011;14721;42.668;23.386;2023-03-11T11:53:19;2.42;;;0.70;;
27209;SDS011;14721;42.668;23.386;2023-03-11T11:55:52;2.30;;;1.10;;
27209;SDS011;14721;42.668;23.386;2023-03-11T11:58:19;2.78;;;0.90;;
27209;SDS011;14721;42.668;23.386;2023-03-11T12:00:55;3.88;;;0.80;;
27209;SDS011;14721;42.668;23.386;2023-03-11T12:03:33;2.85;;;0.80;;
27209;SDS011;14721;42.668;23.386;2023-03-11T12:14:57;1.17;;;0.63;;
27209;SDS011;14721;42.668;23.386;2023-03-11T12:17:23;2.40;;;0.70;;
27209;SDS011;14721;42.668;23.386;2023-03-11T12:30:57;0.98;;;0.50;;
27209;SDS011;14721;42.668;23.386;2023-03-11T12:33:33;1.73;;;0.57;;
27209;SDS011;14721;42.668;23.386;2023-03-11T12:36:35;1.73;;;0.75;;
27209;SDS011;14721;42.668;23.386;2023-03-11T12:39:26;3.40;;;0.88;;
27209;SDS011;14721;42.668;23.386;2023-03-11T12:44:38;2.65;;;0.63;;
27209;SDS011;14721;42.668;23.386;2023-03-11T12:49:41;2.47;;;0.68;;
27209;SDS011;14721;42.668;23.386;2023-03-11T12:54:44;0.80;;;0.70;;
27209;SDS011;14721;42.668;23.386;2023-03-11T13:08:26;3.40;;;1.00;;
27209;SDS011;14721;42.668;23.386;2023-03-11T13:10:57;1.23;;;0.60;;
27209;SDS011;14721;42.668;23.386;2023-03-11T13:18:41;1.13;;;0.60;;
27209;SDS011;14721;42.668;23.386;2023-03-11T13:24:38;2.20;;;1.05;;
27209;SDS011;14721;42.668;23.386;2023-03-11T13:26:58;1.48;;;0.77;;
27209;SDS011;14721;42.668;23.386;2023-03-11T13:40:56;2.50;;;0.80;;
27209;SDS011;14721;42.668;23.386;2023-03-11T13:43:23;1.97;;;0.97;;
27209;SDS011;14721;42.668;23.386;2023-03-11T13:45:58;1.40;;;0.90;;
27209;SDS011;14721;42.668;23.386;2023-03-11T13:48:29;1.73;;;0.90;;
27209;SDS011;14721;42.668;23.386;2023-03-11T13:51:03;2.37;;;0.90;;
27209;SDS011;14721;42.668;23.386;2023-03-11T13:53:46;0.93;;;0.70;;
27209;SDS011;14721;42.668;23.386;2023-03-11T13:56:38;2.40;;;1.30;;
27209;SDS011;14721;42.668;23.386;2023-03-11T13:59:17;1.70;;;0.90;;
27209;SDS011;14721;42.668;23.386;2023-03-11T14:01:51;2.87;;;0.80;;
27209;SDS011;14721;42.668;23.386;2023-03-11T14:04:27;1.03;;;0.43;;
27209;SDS011;14721;42.668;23.386;2023-03-11T14:06:56;0.83;;;0.83;;
27209;SDS011;14721;42.668;23.386;2023-03-11T14:09:23;2.37;;;0.90;;
27209;SDS011;14721;42.668;23.386;2023-03-11T14:11:51;2.20;;;1.07;;
27209;SDS011;14721;42.668;23.386;2023-03-11T14:14:26;6.17;;;2.07;;
27209;SDS011;14721;42.668;23.386;2023-03-11T14:16:54;4.03;;;0.70;;
27209;SDS011;14721;42.668;23.386;2023-03-11T14:19:21;1.83;;;1.20;;
27209;SDS011;14721;42.668;23.386;2023-03-11T14:21:48;0.87;;;0.53;;
27209;SDS011;14721;42.668;23.386;2023-03-11T14:24:16;2.33;;;0.93;;
27209;SDS011;14721;42.668;23.386;2023-03-11T14:26:44;3.03;;;1.20;;
27209;SDS011;14721;42.668;23.386;2023-03-11T14:29:16;4.13;;;1.10;;
27209;SDS011;14721;42.668;23.386;2023-03-11T14:31:44;4.47;;;1.00;;
27209;SDS011;14721;42.668;23.386;2023-03-11T14:36:52;1.97;;;0.73;;
27209;SDS011;14721;42.668;23.386;2023-03-11T14:39:34;2.60;;;1.00;;
27209;SDS011;14721;42.668;23.386;2023-03-11T14:44:44;9.87;;;1.80;;
27209;SDS011;14721;42.668;23.386;2023-03-11T14:50:17;1.57;;;0.80;;
27209;SDS011;14721;42.668;23.386;2023-03-11T14:52:49;1.60;;;0.70;;
27209;SDS011;14721;42.668;23.386;2023-03-11T14:55:22;2.13;;;1.00;;
27209;SDS011;14721;42.668;23.386;2023-03-11T15:00:35;5.23;;;1.27;;
27209;SDS011;14721;42.668;23.386;2023-03-11T15:03:49;4.07;;;1.20;;
27209;SDS011;14721;42.668;23.386;2023-03-11T15:08:29;4.87;;;1.97;;
27209;SDS011;14721;42.668;23.386;2023-03-11T15:13:27;4.30;;;1.80;;
27209;SDS011;14721;42.668;23.386;2023-03-11T15:15:54;2.57;;;1.20;;
27209;SDS011;14721;42.668;23.386;2023-03-11T15:18:24;5.40;;;1.30;;
27209;SDS011;14721;42.668;23.386;2023-03-11T15:21:14;2.37;;;1.13;;
27209;SDS011;14721;42.668;23.386;2023-03-11T15:24:14;3.40;;;1.23;;
27209;SDS011;14721;42.668;23.386;2023-03-11T15:26:32;2.23;;;1.33;;
27209;SDS011;14721;42.668;23.386;2023-03-11T15:29:00;4.67;;;1.27;;
27209;SDS011;14721;42.668;23.386;2023-03-11T15:31:32;3.00;;;1.43;;
27209;SDS011;14721;42.668;23.386;2023-03-11T15:34:07;2.50;;;1.23;;
27209;SDS011;14721;42.668;23.386;2023-03-11T15:36:34;3.90;;;1.10;;
27209;SDS011;14721;42.668;23.386;2023-03-11T15:47:01;4.13;;;1.50;;
27209;SDS011;14721;42.668;23.386;2023-03-11T15:49:28;3.10;;;1.43;;
27209;SDS011;14721;42.668;23.386;2023-03-11T15:51:58;5.20;;;1.93;;
27209;SDS011;14721;42.668;23.386;2023-03-11T15:54:24;4.80;;;1.50;;
27209;SDS011;14721;42.668;23.386;2023-03-11T15:56:50;3.80;;;2.70;;
27209;SDS011;14721;42.668;23.386;2023-03-11T15:59:16;5.07;;;2.23;;
27209;SDS011;14721;42.668;23.386;2023-03-11T16:01:42;6.47;;;2.57;;
27209;SDS011;14721;42.668;23.386;2023-03-11T16:04:13;5.23;;;2.93;;
27209;SDS011;14721;42.668;23.386;2023-03-11T16:06:40;5.30;;;2.97;;
27209;SDS011;14721;42.668;23.386;2023-03-11T16:09:06;7.40;;;2.90;;
27209;SDS011;14721;42.668;23.386;2023-03-11T16:11:32;6.27;;;3.40;;
27209;SDS011;14721;42.668;23.386;2023-03-11T16:13:59;7.63;;;2.97;;
27209;SDS011;14721;42.668;23.386;2023-03-11T16:16:24;5.47;;;2.93;;
27209;SDS011;14721;42.668;23.386;2023-03-11T16:18:50;5.33;;;3.03;;
27209;SDS011;14721;42.668;23.386;2023-03-11T16:21:16;4.10;;;2.83;;
27209;SDS011;14721;42.668;23.386;2023-03-11T16:23:45;4.33;;;2.30;;
27209;SDS011;14721;42.668;23.386;2023-03-11T16:26:14;6.90;;;2.73;;
27209;SDS011;14721;42.668;23.386;2023-03-11T16:28:42;4.47;;;2.87;;
27209;SDS011;14721;42.668;23.386;2023-03-11T16:31:07;4.80;;;2.70;;
27209;SDS011;14721;42.668;23.386;2023-03-11T16:33:34;5.10;;;3.23;;
27209;SDS011;14721;42.668;23.386;2023-03-11T16:36:00;4.40;;;3.03;;
27209;SDS011;14721;42.668;23.386;2023-03-11T16:38:26;4.37;;;3.00;;
27209;SDS011;14721;42.668;23.386;2023-03-11T16:40:58;4.27;;;2.13;;
27209;SDS011;14721;42.668;23.386;2023-03-11T16:43:26;5.93;;;2.30;;
27209;SDS011;14721;42.668;23.386;2023-03-11T16:45:52;5.00;;;2.10;;
27209;SDS011;14721;42.668;23.386;2023-03-11T16:48:19;3.97;;;2.53;;
27209;SDS011;14721;42.668;23.386;2023-03-11T16:50:46;3.30;;;2.30;;
27209;SDS011;14721;42.668;23.386;2023-03-11T16:53:11;3.60;;;2.17;;
27209;SDS011;14721;42.668;23.386;2023-03-11T16:55:40;2.80;;;2.07;;
27209;SDS011;14721;42.668;23.386;2023-03-11T16:58:06;1.90;;;1.30;;
27209;SDS011;14721;42.668;23.386;2023-03-11T17:00:32;2.50;;;1.13;;